sensor_id;sensor_type;location;lat;lon;timestamp;pressure;altitude;pressure_sealevel;temperature;humidity
40117;BME280;25829;50.228;18.936;2023-05-12T00:02:29;98684.63;;;11.62;43.87
40117;BME280;25829;50.228;18.936;2023-05-12T00:05:31;98684.47;;;11.50;44.17
40117;BME280;25829;50.228;18.936;2023-05-12T00:08:32;98688.56;;;11.40;44.38
40117;BME280;25829;50.228;18.936;2023-05-12T00:11:32;98684.75;;;11.22;44.80
40117;BME280;25829;50.228;18.936;2023-05-12T00:14:34;98684.34;;;11.05;44.73
40117;BME280;25829;50.228;18.936;2023-05-12T00:17:36;98688.84;;;10.92;45.42
40117;BME280;25829;50.228;18.936;2023-05-12T00:20:42;98680.09;;;10.78;45.79
40117;BME280;25829;50.228;18.936;2023-05-12T00:23:44;98689.81;;;10.64;45.94
40117;BME280;25829;50.228;18.936;2023-05-12T00:26:45;98686.34;;;10.50;46.02
40117;BME280;25829;50.228;18.936;2023-05-12T00:29:46;98686.13;;;10.45;46.48
40117;BME280;25829;50.228;18.936;2023-05-12T00:32:49;98684.09;;;10.41;46.55
40117;BME280;25829;50.228;18.936;2023-05-12T00:35:53;98690.38;;;10.33;47.02
40117;BME280;25829;50.228;18.936;2023-05-12T00:38:54;98696.66;;;10.25;46.99
40117;BME280;25829;50.228;18.936;2023-05-12T00:42:28;98688.47;;;10.07;48.38
40117;BME280;25829;50.228;18.936;2023-05-12T00:45:29;98690.88;;;9.95;47.68
40117;BME280;25829;50.228;18.936;2023-05-12T00:48:33;98685.97;;;9.85;48.13
40117;BME280;25829;50.228;18.936;2023-05-12T00:51:35;98689.22;;;9.81;48.33
40117;BME280;25829;50.228;18.936;2023-05-12T00:54:37;98691.63;;;9.76;48.42
40117;BME280;25829;50.228;18.936;2023-05-12T00:57:40;98691.78;;;9.68;48.91
40117;BME280;25829;50.228;18.936;2023-05-12T01:00:41;98688.31;;;9.60;49.03
40117;BME280;25829;50.228;18.936;2023-05-12T01:03:43;98692.16;;;9.58;49.52
40117;BME280;25829;50.228;18.936;2023-05-12T01:07:09;98687.84;;;9.50;49.94
40117;BME280;25829;50.228;18.936;2023-05-12T01:10:19;98690.03;;;9.40;49.68
40117;BME280;25829;50.228;18.936;2023-05-12T01:13:20;98686.69;;;9.25;50.06
40117;BME280;25829;50.228;18.936;2023-05-12T01:16:26;98696.50;;;9.09;50.63
40117;BME280;25829;50.228;18.936;2023-05-12T01:19:47;98694.00;;;9.01;51.23
40117;BME280;25829;50.228;18.936;2023-05-12T01:22:49;98693.75;;;8.96;50.75
40117;BME280;25829;50.228;18.936;2023-05-12T01:25:51;98700.28;;;9.00;50.95
40117;BME280;25829;50.228;18.936;2023-05-12T01:28:55;98697.03;;;8.98;51.34
40117;BME280;25829;50.228;18.936;2023-05-12T01:31:58;98695.19;;;8.99;51.19
40117;BME280;25829;50.228;18.936;2023-05-12T01:34:59;98695.03;;;9.00;51.26
40117;BME280;25829;50.228;18.936;2023-05-12T01:38:01;98690.94;;;8.98;51.55
40117;BME280;25829;50.228;18.936;2023-05-12T01:41:07;98703.25;;;8.90;51.60
40117;BME280;25829;50.228;18.936;2023-05-12T01:44:08;98696.69;;;8.80;51.61
40117;BME280;25829;50.228;18.936;2023-05-12T01:47:10;98698.25;;;8.74;51.95
40117;BME280;25829;50.228;18.936;2023-05-12T01:50:24;98690.72;;;8.71;52.13
40117;BME280;25829;50.228;18.936;2023-05-12T01:53:25;98694.97;;;8.72;51.74
40117;BME280;25829;50.228;18.936;2023-05-12T01:56:29;98702.69;;;8.74;51.86
40117;BME280;25829;50.228;18.936;2023-05-12T01:59:30;98697.25;;;8.75;51.94
40117;BME280;25829;50.228;18.936;2023-05-12T02:02:31;98706.13;;;8.74;52.25
40117;BME280;25829;50.228;18.936;2023-05-12T02:05:34;98707.75;;;8.75;52.08
40117;BME280;25829;50.228;18.936;2023-05-12T02:08:39;98698.63;;;8.71;51.79
40117;BME280;25829;50.228;18.936;2023-05-12T02:11:40;98695.75;;;8.66;52.43
40117;BME280;25829;50.228;18.936;2023-05-12T02:14:41;98699.56;;;8.63;52.46
40117;BME280;25829;50.228;18.936;2023-05-12T02:17:42;98705.41;;;8.59;52.54
40117;BME280;25829;50.228;18.936;2023-05-12T02:20:49;98700.97;;;8.59;53.03
40117;BME280;25829;50.228;18.936;2023-05-12T02:23:56;98702.94;;;8.57;52.93
40117;BME280;25829;50.228;18.936;2023-05-12T02:26:57;98694.84;;;8.52;53.02
40117;BME280;25829;50.228;18.936;2023-05-12T02:29:58;98708.34;;;8.49;52.54
40117;BME280;25829;50.228;18.936;2023-05-12T02:32:59;98700.84;;;8.46;52.84
40117;BME280;25829;50.228;18.936;2023-05-12T02:36:03;98708.53;;;8.48;52.99
40117;BME280;25829;50.228;18.936;2023-05-12T02:39:07;98712.00;;;8.48;52.90
40117;BME280;25829;50.228;18.936;2023-05-12T02:42:10;98705.91;;;8.48;52.44
40117;BME280;25829;50.228;18.936;2023-05-12T02:45:20;98708.34;;;8.49;52.63
40117;BME280;25829;50.228;18.936;2023-05-12T02:48:21;98709.81;;;8.52;52.76
40117;BME280;25829;50.228;18.936;2023-05-12T02:51:22;98708.59;;;8.54;52.39
40117;BME280;25829;50.228;18.936;2023-05-12T02:54:26;98710.03;;;8.57;52.72
40117;BME280;25829;50.228;18.936;2023-05-12T02:57:26;98699.31;;;8.58;52.79
40117;BME280;25829;50.228;18.936;2023-05-12T03:00:33;98702.41;;;8.62;52.60
40117;BME280;25829;50.228;18.936;2023-05-12T03:03:34;98700.16;;;8.59;52.32
40117;BME280;25829;50.228;18.936;2023-05-12T03:06:35;98709.03;;;8.58;52.38
40117;BME280;25829;50.228;18.936;2023-05-12T03:09:42;98701.78;;;8.60;52.51
40117;BME280;25829;50.228;18.936;2023-05-12T03:13:01;98707.41;;;8.57;52.75
40117;BME280;25829;50.228;18.936;2023-05-12T03:16:05;98713.84;;;8.54;52.63
40117;BME280;25829;50.228;18.936;2023-05-12T03:19:09;98709.59;;;8.53;53.09
40117;BME280;25829;50.228;18.936;2023-05-12T03:22:10;98707.97;;;8.52;52.75
40117;BME280;25829;50.228;18.936;2023-05-12T03:25:11;98712.47;;;8.58;52.53
40117;BME280;25829;50.228;18.936;2023-05-12T03:28:12;98706.22;;;8.59;52.69
40117;BME280;25829;50.228;18.936;2023-05-12T03:31:14;98710.31;;;8.62;52.85
40117;BME280;25829;50.228;18.936;2023-05-12T03:34:29;98715.34;;;8.63;52.56
40117;BME280;25829;50.228;18.936;2023-05-12T03:37:32;98709.28;;;8.63;52.56
40117;BME280;25829;50.228;18.936;2023-05-12T03:43:44;98701.19;;;8.64;52.50
40117;BME280;25829;50.228;18.936;2023-05-12T03:46:48;98707.69;;;8.68;52.32
40117;BME280;25829;50.228;18.936;2023-05-12T03:49:49;98705.75;;;8.77;52.39
40117;BME280;25829;50.228;18.936;2023-05-12T03:52:50;98713.44;;;8.79;52.04
40117;BME280;25829;50.228;18.936;2023-05-12T03:55:55;98709.47;;;8.83;51.71
40117;BME280;25829;50.228;18.936;2023-05-12T03:58:56;98720.41;;;8.86;51.82
40117;BME280;25829;50.228;18.936;2023-05-12T04:02:00;98724.28;;;8.90;51.61
40117;BME280;25829;50.228;18.936;2023-05-12T04:05:01;98712.59;;;8.93;52.10
40117;BME280;25829;50.228;18.936;2023-05-12T04:08:01;98714.00;;;8.96;51.83
40117;BME280;25829;50.228;18.936;2023-05-12T04:11:14;98713.03;;;9.03;51.80
40117;BME280;25829;50.228;18.936;2023-05-12T04:14:16;98721.38;;;9.07;51.69
40117;BME280;25829;50.228;18.936;2023-05-12T04:17:16;98718.19;;;9.11;51.29
40117;BME280;25829;50.228;18.936;2023-05-12T04:20:19;98724.47;;;9.17;51.59
40117;BME280;25829;50.228;18.936;2023-05-12T04:23:21;98727.38;;;9.22;51.18
40117;BME280;25829;50.228;18.936;2023-05-12T04:26:22;98731.06;;;9.28;51.41
40117;BME280;25829;50.228;18.936;2023-05-12T04:29:23;98726.59;;;9.28;51.30
40117;BME280;25829;50.228;18.936;2023-05-12T04:32:24;98726.00;;;9.33;51.25
40117;BME280;25829;50.228;18.936;2023-05-12T04:35:25;98728.72;;;9.39;51.43
40117;BME280;25829;50.228;18.936;2023-05-12T04:38:26;98727.31;;;9.44;51.26
40117;BME280;25829;50.228;18.936;2023-05-12T04:41:27;98729.19;;;9.50;51.19
40117;BME280;25829;50.228;18.936;2023-05-12T04:44:37;98730.66;;;9.59;50.82
40117;BME280;25829;50.228;18.936;2023-05-12T04:47:39;98731.91;;;9.63;51.00
40117;BME280;25829;50.228;18.936;2023-05-12T04:50:40;98732.53;;;9.72;50.95
40117;BME280;25829;50.228;18.936;2023-05-12T04:53:41;98740.31;;;9.80;50.74
40117;BME280;25829;50.228;18.936;2023-05-12T04:56:42;98742.38;;;9.91;50.64
40117;BME280;25829;50.228;18.936;2023-05-12T04:59:43;98729.66;;;10.01;50.40
40117;BME280;25829;50.228;18.936;2023-05-12T05:02:44;98733.94;;;10.09;50.33
40117;BME280;25829;50.228;18.936;2023-05-12T05:05:45;98729.47;;;10.16;50.00
40117;BME280;25829;50.228;18.936;2023-05-12T05:08:49;98736.00;;;10.27;49.89
40117;BME280;25829;50.228;18.936;2023-05-12T05:11:56;98743.53;;;10.37;50.19
40117;BME280;25829;50.228;18.936;2023-05-12T05:14:56;98732.63;;;10.46;49.98
40117;BME280;25829;50.228;18.936;2023-05-12T05:18:11;98735.28;;;10.59;50.07
40117;BME280;25829;50.228;18.936;2023-05-12T05:21:12;98735.47;;;10.71;49.42
40117;BME280;25829;50.228;18.936;2023-05-12T05:24:17;98741.81;;;10.77;49.29
40117;BME280;25829;50.228;18.936;2023-05-12T05:27:18;98740.19;;;10.82;49.67
40117;BME280;25829;50.228;18.936;2023-05-12T05:30:19;98737.97;;;10.86;49.38
40117;BME280;25829;50.228;18.936;2023-05-12T05:33:20;98736.34;;;10.98;49.24
40117;BME280;25829;50.228;18.936;2023-05-12T05:36:24;98742.44;;;11.12;49.29
40117;BME280;25829;50.228;18.936;2023-05-12T05:39:29;98742.03;;;11.22;48.70
40117;BME280;25829;50.228;18.936;2023-05-12T05:42:36;98748.69;;;11.38;48.44
40117;BME280;25829;50.228;18.936;2023-05-12T05:45:40;98743.00;;;11.47;48.28
40117;BME280;25829;50.228;18.936;2023-05-12T05:48:41;98746.63;;;11.60;47.99
40117;BME280;25829;50.228;18.936;2023-05-12T05:51:50;98739.69;;;11.72;48.05
40117;BME280;25829;50.228;18.936;2023-05-12T05:54:51;98739.03;;;11.83;47.59
40117;BME280;25829;50.228;18.936;2023-05-12T05:57:53;98741.63;;;11.96;47.87
40117;BME280;25829;50.228;18.936;2023-05-12T06:00:55;98748.09;;;12.14;47.26
40117;BME280;25829;50.228;18.936;2023-05-12T06:04:06;98749.47;;;12.30;47.30
40117;BME280;25829;50.228;18.936;2023-05-12T06:07:07;98747.13;;;12.46;46.77
40117;BME280;25829;50.228;18.936;2023-05-12T06:10:08;98747.59;;;12.68;46.43
40117;BME280;25829;50.228;18.936;2023-05-12T06:13:32;98758.44;;;12.92;46.71
40117;BME280;25829;50.228;18.936;2023-05-12T06:16:37;98757.22;;;13.19;46.12
40117;BME280;25829;50.228;18.936;2023-05-12T06:19:49;98754.56;;;13.45;45.67
40117;BME280;25829;50.228;18.936;2023-05-12T06:22:50;98756.47;;;13.74;45.23
40117;BME280;25829;50.228;18.936;2023-05-12T06:25:57;98756.72;;;14.09;45.05
40117;BME280;25829;50.228;18.936;2023-05-12T06:29:00;98752.47;;;14.20;44.18
40117;BME280;25829;50.228;18.936;2023-05-12T06:32:10;98757.75;;;14.27;44.59
40117;BME280;25829;50.228;18.936;2023-05-12T06:35:14;98750.50;;;14.34;44.17
40117;BME280;25829;50.228;18.936;2023-05-12T06:42:28;98745.56;;;14.49;43.82
40117;BME280;25829;50.228;18.936;2023-05-12T06:45:31;98744.94;;;14.66;43.88
40117;BME280;25829;50.228;18.936;2023-05-12T06:48:33;98746.81;;;14.77;43.90
40117;BME280;25829;50.228;18.936;2023-05-12T06:51:52;98747.53;;;14.84;43.30
40117;BME280;25829;50.228;18.936;2023-05-12T07:07:04;98742.34;;;15.01;42.60
40117;BME280;25829;50.228;18.936;2023-05-12T07:10:30;98742.47;;;15.06;42.58
40117;BME280;25829;50.228;18.936;2023-05-12T07:14:18;98743.75;;;15.15;42.60
40117;BME280;25829;50.228;18.936;2023-05-12T07:17:24;98738.56;;;15.20;42.33
40117;BME280;25829;50.228;18.936;2023-05-12T07:20:34;98737.09;;;15.36;42.58
40117;BME280;25829;50.228;18.936;2023-05-12T07:23:36;98737.78;;;15.43;42.07
40117;BME280;25829;50.228;18.936;2023-05-12T07:26:39;98728.75;;;15.56;41.71
40117;BME280;25829;50.228;18.936;2023-05-12T07:29:43;98729.97;;;15.77;41.90
40117;BME280;25829;50.228;18.936;2023-05-12T07:32:44;98729.66;;;16.14;41.62
40117;BME280;25829;50.228;18.936;2023-05-12T07:35:48;98733.72;;;16.62;41.32
40117;BME280;25829;50.228;18.936;2023-05-12T07:38:59;98726.94;;;17.16;40.85
40117;BME280;25829;50.228;18.936;2023-05-12T07:42:09;98731.97;;;17.52;39.53
40117;BME280;25829;50.228;18.936;2023-05-12T07:45:14;98730.19;;;17.57;39.25
40117;BME280;25829;50.228;18.936;2023-05-12T07:48:23;98726.06;;;17.50;39.31
40117;BME280;25829;50.228;18.936;2023-05-12T07:51:24;98730.78;;;17.42;39.22
40117;BME280;25829;50.228;18.936;2023-05-12T07:54:25;98732.97;;;17.45;39.11
40117;BME280;25829;50.228;18.936;2023-05-12T07:57:29;98728.47;;;17.51;39.11
40117;BME280;25829;50.228;18.936;2023-05-12T08:00:29;98732.91;;;17.62;38.92
40117;BME280;25829;50.228;18.936;2023-05-12T08:03:46;98729.34;;;17.74;38.26
40117;BME280;25829;50.228;18.936;2023-05-12T08:06:47;98732.75;;;17.91;38.09
40117;BME280;25829;50.228;18.936;2023-05-12T08:10:21;98724.44;;;18.09;36.37
40117;BME280;25829;50.228;18.936;2023-05-12T08:21:30;98723.47;;;18.75;37.25
40117;BME280;25829;50.228;18.936;2023-05-12T08:24:32;98727.44;;;18.99;36.81
40117;BME280;25829;50.228;18.936;2023-05-12T08:27:32;98736.50;;;19.30;36.40
40117;BME280;25829;50.228;18.936;2023-05-12T08:30:33;98739.09;;;19.63;35.73
40117;BME280;25829;50.228;18.936;2023-05-12T08:33:35;98725.66;;;20.10;35.47
40117;BME280;25829;50.228;18.936;2023-05-12T08:36:55;98723.91;;;20.67;32.75
40117;BME280;25829;50.228;18.936;2023-05-12T08:39:55;98730.31;;;21.48;35.36
40117;BME280;25829;50.228;18.936;2023-05-12T08:46:06;98728.19;;;23.27;33.33
40117;BME280;25829;50.228;18.936;2023-05-12T08:49:16;98725.28;;;23.96;32.73
40117;BME280;25829;50.228;18.936;2023-05-12T08:52:17;98736.28;;;24.80;32.10
40117;BME280;25829;50.228;18.936;2023-05-12T08:55:31;98722.44;;;25.33;31.38
40117;BME280;25829;50.228;18.936;2023-05-12T08:58:34;98728.13;;;25.87;29.51
40117;BME280;25829;50.228;18.936;2023-05-12T09:01:36;98727.78;;;26.30;29.75
40117;BME280;25829;50.228;18.936;2023-05-12T09:04:42;98734.56;;;26.55;30.17
40117;BME280;25829;50.228;18.936;2023-05-12T09:14:39;98720.72;;;27.64;29.30
40117;BME280;25829;50.228;18.936;2023-05-12T09:22:27;98716.16;;;27.90;23.78
40117;BME280;25829;50.228;18.936;2023-05-12T09:25:43;98733.84;;;27.79;25.66
40117;BME280;25829;50.228;18.936;2023-05-12T09:28:45;98736.09;;;27.94;27.61
40117;BME280;25829;50.228;18.936;2023-05-12T09:31:53;98723.53;;;28.07;26.52
40117;BME280;25829;50.228;18.936;2023-05-12T09:34:54;98733.13;;;28.13;27.38
40117;BME280;25829;50.228;18.936;2023-05-12T09:37:56;98720.66;;;28.21;26.60
40117;BME280;25829;50.228;18.936;2023-05-12T09:41:04;98729.25;;;27.97;25.10
40117;BME280;25829;50.228;18.936;2023-05-12T09:44:06;98721.09;;;27.79;26.02
40117;BME280;25829;50.228;18.936;2023-05-12T09:47:08;98727.94;;;27.46;23.44
40117;BME280;25829;50.228;18.936;2023-05-12T09:50:09;98715.50;;;27.36;25.36
40117;BME280;25829;50.228;18.936;2023-05-12T09:53:11;98724.06;;;27.07;23.31
40117;BME280;25829;50.228;18.936;2023-05-12T09:56:16;98736.31;;;26.59;25.24
40117;BME280;25829;50.228;18.936;2023-05-12T09:59:18;98739.66;;;26.06;26.06
40117;BME280;25829;50.228;18.936;2023-05-12T10:02:27;98729.75;;;25.33;25.26
40117;BME280;25829;50.228;18.936;2023-05-12T10:05:29;98737.44;;;24.55;25.20
40117;BME280;25829;50.228;18.936;2023-05-12T10:08:33;98733.13;;;23.97;26.66
40117;BME280;25829;50.228;18.936;2023-05-12T10:11:34;98733.44;;;23.43;25.79
40117;BME280;25829;50.228;18.936;2023-05-12T10:14:36;98739.47;;;23.00;25.74
40117;BME280;25829;50.228;18.936;2023-05-12T10:17:39;98732.25;;;22.56;24.23
40117;BME280;25829;50.228;18.936;2023-05-12T10:20:44;98742.13;;;22.27;25.67
40117;BME280;25829;50.228;18.936;2023-05-12T10:23:49;98744.19;;;21.80;26.73
40117;BME280;25829;50.228;18.936;2023-05-12T10:26:52;98740.53;;;21.45;26.73
40117;BME280;25829;50.228;18.936;2023-05-12T10:29:55;98733.31;;;21.20;26.76
40117;BME280;25829;50.228;18.936;2023-05-12T10:33:01;98732.50;;;21.10;27.16
40117;BME280;25829;50.228;18.936;2023-05-12T10:36:02;98731.19;;;20.92;27.06
40117;BME280;25829;50.228;18.936;2023-05-12T10:39:06;98733.56;;;20.83;27.59
40117;BME280;25829;50.228;18.936;2023-05-12T10:42:10;98722.34;;;20.81;28.25
40117;BME280;25829;50.228;18.936;2023-05-12T10:45:15;98717.47;;;20.73;27.37
40117;BME280;25829;50.228;18.936;2023-05-12T10:48:19;98717.75;;;20.51;27.63
40117;BME280;25829;50.228;18.936;2023-05-12T10:51:25;98731.88;;;20.31;28.07
40117;BME280;25829;50.228;18.936;2023-05-12T10:54:27;98728.06;;;20.12;28.78
40117;BME280;25829;50.228;18.936;2023-05-12T10:57:30;98725.91;;;19.98;28.79
40117;BME280;25829;50.228;18.936;2023-05-12T11:00:42;98729.34;;;19.89;28.72
40117;BME280;25829;50.228;18.936;2023-05-12T11:03:43;98726.63;;;19.78;28.86
40117;BME280;25829;50.228;18.936;2023-05-12T11:06:59;98719.09;;;19.70;29.07
40117;BME280;25829;50.228;18.936;2023-05-12T11:10:02;98725.69;;;19.63;29.25
40117;BME280;25829;50.228;18.936;2023-05-12T11:13:03;98718.72;;;19.56;29.19
40117;BME280;25829;50.228;18.936;2023-05-12T11:16:04;98722.72;;;19.54;29.32
40117;BME280;25829;50.228;18.936;2023-05-12T11:19:05;98726.44;;;19.53;29.82
40117;BME280;25829;50.228;18.936;2023-05-12T11:22:08;98729.41;;;19.51;29.26
40117;BME280;25829;50.228;18.936;2023-05-12T11:25:10;98729.59;;;19.40;29.50
40117;BME280;25829;50.228;18.936;2023-05-12T11:28:11;98738.91;;;19.32;29.63
40117;BME280;25829;50.228;18.936;2023-05-12T11:31:26;98738.06;;;19.26;29.20
40117;BME280;25829;50.228;18.936;2023-05-12T11:34:35;98738.91;;;19.32;29.54
40117;BME280;25829;50.228;18.936;2023-05-12T11:37:39;98726.06;;;19.29;29.38
40117;BME280;25829;50.228;18.936;2023-05-12T11:40:41;98738.66;;;19.33;29.47
40117;BME280;25829;50.228;18.936;2023-05-12T11:43:53;98719.16;;;19.38;29.94
40117;BME280;25829;50.228;18.936;2023-05-12T11:47:13;98730.47;;;19.50;29.78
40117;BME280;25829;50.228;18.936;2023-05-12T11:50:24;98732.94;;;19.62;30.12
40117;BME280;25829;50.228;18.936;2023-05-12T11:53:25;98732.72;;;19.69;29.95
40117;BME280;25829;50.228;18.936;2023-05-12T11:56:25;98739.97;;;19.68;30.21
40117;BME280;25829;50.228;18.936;2023-05-12T11:59:28;98753.53;;;19.62;29.82
40117;BME280;25829;50.228;18.936;2023-05-12T12:02:29;98744.94;;;19.54;29.76
40117;BME280;25829;50.228;18.936;2023-05-12T12:05:31;98751.34;;;19.53;29.86
40117;BME280;25829;50.228;18.936;2023-05-12T12:08:31;98747.09;;;19.57;30.22
40117;BME280;25829;50.228;18.936;2023-05-12T12:11:33;98744.66;;;19.56;29.83
40117;BME280;25829;50.228;18.936;2023-05-12T12:14:37;98744.38;;;19.52;29.98
40117;BME280;25829;50.228;18.936;2023-05-12T12:17:44;98745.97;;;19.48;30.12
40117;BME280;25829;50.228;18.936;2023-05-12T12:20:50;98741.34;;;19.39;29.87
40117;BME280;25829;50.228;18.936;2023-05-12T12:23:51;98740.75;;;19.26;30.11
40117;BME280;25829;50.228;18.936;2023-05-12T12:26:52;98749.03;;;19.25;30.32
40117;BME280;25829;50.228;18.936;2023-05-12T12:29:56;98746.88;;;19.22;30.60
40117;BME280;25829;50.228;18.936;2023-05-12T12:33:00;98754.91;;;19.22;30.27
40117;BME280;25829;50.228;18.936;2023-05-12T12:36:09;98749.25;;;19.18;30.30
40117;BME280;25829;50.228;18.936;2023-05-12T12:39:09;98747.09;;;19.15;30.73
40117;BME280;25829;50.228;18.936;2023-05-12T12:42:12;98758.59;;;19.16;31.19
40117;BME280;25829;50.228;18.936;2023-05-12T12:45:14;98732.88;;;19.09;30.53
40117;BME280;25829;50.228;18.936;2023-05-12T12:48:15;98740.31;;;19.02;31.02
40117;BME280;25829;50.228;18.936;2023-05-12T12:51:23;98742.41;;;19.00;31.00
40117;BME280;25829;50.228;18.936;2023-05-12T12:54:25;98745.88;;;18.96;31.19
40117;BME280;25829;50.228;18.936;2023-05-12T12:57:28;98753.91;;;19.01;31.39
40117;BME280;25829;50.228;18.936;2023-05-12T13:00:29;98751.25;;;19.01;31.37
40117;BME280;25829;50.228;18.936;2023-05-12T13:03:35;98757.44;;;19.01;31.42
40117;BME280;25829;50.228;18.936;2023-05-12T13:06:36;98757.97;;;19.03;31.77
40117;BME280;25829;50.228;18.936;2023-05-12T13:09:37;98753.88;;;18.91;31.24
40117;BME280;25829;50.228;18.936;2023-05-12T13:12:38;98759.31;;;18.79;31.29
40117;BME280;25829;50.228;18.936;2023-05-12T13:15:39;98753.88;;;18.69;31.35
40117;BME280;25829;50.228;18.936;2023-05-12T13:18:41;98753.28;;;18.61;31.55
40117;BME280;25829;50.228;18.936;2023-05-12T13:21:42;98749.00;;;18.60;31.37
40117;BME280;25829;50.228;18.936;2023-05-12T13:24:45;98755.97;;;18.61;31.65
40117;BME280;25829;50.228;18.936;2023-05-12T13:27:46;98749.03;;;18.66;31.49
40117;BME280;25829;50.228;18.936;2023-05-12T13:30:47;98744.50;;;18.66;31.45
40117;BME280;25829;50.228;18.936;2023-05-12T13:33:47;98738.94;;;18.73;31.70
40117;BME280;25829;50.228;18.936;2023-05-12T13:36:51;98740.81;;;18.72;31.37
40117;BME280;25829;50.228;18.936;2023-05-12T13:39:52;98757.13;;;18.71;31.34
40117;BME280;25829;50.228;18.936;2023-05-12T13:43:15;98745.56;;;18.65;31.16
40117;BME280;25829;50.228;18.936;2023-05-12T13:46:35;98740.22;;;18.65;31.39
40117;BME280;25829;50.228;18.936;2023-05-12T13:49:36;98734.59;;;18.61;31.26
40117;BME280;25829;50.228;18.936;2023-05-12T13:52:43;98732.22;;;18.65;31.41
40117;BME280;25829;50.228;18.936;2023-05-12T13:55:44;98731.44;;;18.70;31.45
40117;BME280;25829;50.228;18.936;2023-05-12T13:58:52;98720.00;;;18.74;31.33
40117;BME280;25829;50.228;18.936;2023-05-12T14:01:58;98720.59;;;18.81;31.17
40117;BME280;25829;50.228;18.936;2023-05-12T14:04:59;98719.84;;;18.86;31.43
40117;BME280;25829;50.228;18.936;2023-05-12T14:08:03;98718.25;;;18.85;31.15
40117;BME280;25829;50.228;18.936;2023-05-12T14:11:04;98720.94;;;18.85;31.35
40117;BME280;25829;50.228;18.936;2023-05-12T14:14:05;98720.94;;;18.85;31.09
40117;BME280;25829;50.228;18.936;2023-05-12T14:17:07;98716.13;;;18.87;31.57
40117;BME280;25829;50.228;18.936;2023-05-12T14:20:08;98731.19;;;18.98;31.42
40117;BME280;25829;50.228;18.936;2023-05-12T14:23:12;98728.53;;;18.98;31.08
40117;BME280;25829;50.228;18.936;2023-05-12T14:26:16;98727.72;;;18.98;31.33
40117;BME280;25829;50.228;18.936;2023-05-12T14:29:18;98727.16;;;18.96;31.99
40117;BME280;25829;50.228;18.936;2023-05-12T14:32:19;98716.44;;;18.91;31.32
40117;BME280;25829;50.228;18.936;2023-05-12T14:35:25;98724.88;;;18.82;31.41
40117;BME280;25829;50.228;18.936;2023-05-12T14:38:27;98732.50;;;18.69;31.58
40117;BME280;25829;50.228;18.936;2023-05-12T14:41:27;98720.91;;;18.58;31.78
40117;BME280;25829;50.228;18.936;2023-05-12T14:44:28;98734.44;;;18.46;31.96
40117;BME280;25829;50.228;18.936;2023-05-12T14:47:29;98734.38;;;18.41;32.14
40117;BME280;25829;50.228;18.936;2023-05-12T14:50:34;98733.28;;;18.37;32.06
40117;BME280;25829;50.228;18.936;2023-05-12T14:53:38;98735.91;;;18.32;31.58
40117;BME280;25829;50.228;18.936;2023-05-12T14:56:41;98745.22;;;18.29;31.66
40117;BME280;25829;50.228;18.936;2023-05-12T14:59:45;98732.59;;;18.25;32.06
40117;BME280;25829;50.228;18.936;2023-05-12T15:02:49;98728.63;;;18.27;31.78
40117;BME280;25829;50.228;18.936;2023-05-12T15:13:25;98733.63;;;18.19;32.41
40117;BME280;25829;50.228;18.936;2023-05-12T15:16:32;98735.72;;;18.16;32.42
40117;BME280;25829;50.228;18.936;2023-05-12T15:19:36;98735.13;;;18.09;32.02
40117;BME280;25829;50.228;18.936;2023-05-12T15:22:46;98743.09;;;18.04;32.41
40117;BME280;25829;50.228;18.936;2023-05-12T15:25:47;98739.28;;;18.00;32.51
40117;BME280;25829;50.228;18.936;2023-05-12T15:28:48;98742.97;;;17.99;32.71
40117;BME280;25829;50.228;18.936;2023-05-12T15:31:51;98744.84;;;17.99;32.42
40117;BME280;25829;50.228;18.936;2023-05-12T15:34:54;98749.47;;;18.03;32.33
40117;BME280;25829;50.228;18.936;2023-05-12T15:38:02;98750.03;;;18.05;31.92
40117;BME280;25829;50.228;18.936;2023-05-12T15:41:02;98755.06;;;18.02;31.96
40117;BME280;25829;50.228;18.936;2023-05-12T15:44:03;98751.31;;;18.03;32.17
40117;BME280;25829;50.228;18.936;2023-05-12T15:47:04;98763.88;;;18.02;31.62
40117;BME280;25829;50.228;18.936;2023-05-12T15:50:06;98741.38;;;17.98;31.82
40117;BME280;25829;50.228;18.936;2023-05-12T15:53:07;98745.59;;;17.94;31.70
40117;BME280;25829;50.228;18.936;2023-05-12T15:56:08;98748.19;;;17.89;31.32
40117;BME280;25829;50.228;18.936;2023-05-12T15:59:09;98744.41;;;17.85;31.43
40117;BME280;25829;50.228;18.936;2023-05-12T16:05:25;98751.66;;;17.89;31.46
40117;BME280;25829;50.228;18.936;2023-05-12T16:08:26;98742.84;;;17.89;31.20
40117;BME280;25829;50.228;18.936;2023-05-12T16:11:27;98740.75;;;17.91;31.19
40117;BME280;25829;50.228;18.936;2023-05-12T16:14:32;98746.91;;;17.91;31.45
40117;BME280;25829;50.228;18.936;2023-05-12T16:17:33;98750.84;;;17.89;31.09
40117;BME280;25829;50.228;18.936;2023-05-12T16:20:34;98751.03;;;17.82;30.96
40117;BME280;25829;50.228;18.936;2023-05-12T16:23:34;98742.41;;;17.75;30.97
40117;BME280;25829;50.228;18.936;2023-05-12T16:26:35;98754.06;;;17.69;31.22
40117;BME280;25829;50.228;18.936;2023-05-12T16:29:36;98765.00;;;17.67;31.36
40117;BME280;25829;50.228;18.936;2023-05-12T16:32:43;98749.97;;;17.61;31.27
40117;BME280;25829;50.228;18.936;2023-05-12T16:35:45;98765.13;;;17.56;31.35
40117;BME280;25829;50.228;18.936;2023-05-12T16:38:46;98751.16;;;17.49;31.26
40117;BME280;25829;50.228;18.936;2023-05-12T16:41:56;98772.66;;;17.42;31.20
40117;BME280;25829;50.228;18.936;2023-05-12T16:44:58;98767.22;;;17.37;31.28
40117;BME280;25829;50.228;18.936;2023-05-12T16:48:01;98773.38;;;17.37;31.35
40117;BME280;25829;50.228;18.936;2023-05-12T16:51:05;98771.44;;;17.33;31.24
40117;BME280;25829;50.228;18.936;2023-05-12T16:54:14;98765.78;;;17.29;31.10
40117;BME280;25829;50.228;18.936;2023-05-12T16:57:23;98776.13;;;17.26;31.11
40117;BME280;25829;50.228;18.936;2023-05-12T17:00:24;98775.00;;;17.21;31.09